sensor_id;sensor_type;location;lat;lon;timestamp;P1;durP1;ratioP1;P2;durP2;ratioP2
21206;SDS011;10761;48.532;8.026;2023-08-24T00:02:02;8.68;;;4.20;;
21206;SDS011;10761;48.532;8.026;2023-08-24T00:04:28;7.38;;;3.97;;
21206;SDS011;10761;48.532;8.026;2023-08-24T00:06:53;6.35;;;4.00;;
21206;SDS011;10761;48.532;8.026;2023-08-24T00:09:19;5.57;;;3.88;;
21206;SDS011;10761;48.532;8.026;2023-08-24T00:11:45;4.22;;;3.47;;
21206;SDS011;10761;48.532;8.026;2023-08-24T00:14:11;5.03;;;3.70;;
21206;SDS011;10761;48.532;8.026;2023-08-24T00:16:37;5.95;;;3.95;;
21206;SDS011;10761;48.532;8.026;2023-08-24T00:19:03;7.07;;;4.25;;
21206;SDS011;10761;48.532;8.026;2023-08-24T00:21:28;7.32;;;4.22;;
21206;SDS011;10761;48.532;8.026;2023-08-24T00:23:54;4.32;;;3.92;;
21206;SDS011;10761;48.532;8.026;2023-08-24T00:26:19;4.95;;;4.00;;
21206;SDS011;10761;48.532;8.026;2023-08-24T00:28:45;7.20;;;4.13;;
21206;SDS011;10761;48.532;8.026;2023-08-24T00:31:11;4.60;;;3.88;;
21206;SDS011;10761;48.532;8.026;2023-08-24T00:33:36;7.10;;;4.05;;
21206;SDS011;10761;48.532;8.026;2023-08-24T00:36:02;6.68;;;4.10;;
21206;SDS011;10761;48.532;8.026;2023-08-24T00:38:29;6.28;;;4.10;;
21206;SDS011;10761;48.532;8.026;2023-08-24T00:40:55;6.00;;;4.00;;
21206;SDS011;10761;48.532;8.026;2023-08-24T00:43:21;8.95;;;4.47;;
21206;SDS011;10761;48.532;8.026;2023-08-24T00:45:51;4.25;;;3.85;;
21206;SDS011;10761;48.532;8.026;2023-08-24T00:48:20;5.15;;;3.92;;
21206;SDS011;10761;48.532;8.026;2023-08-24T00:50:50;5.63;;;3.88;;
21206;SDS011;10761;48.532;8.026;2023-08-24T00:53:17;5.13;;;3.92;;
21206;SDS011;10761;48.532;8.026;2023-08-24T00:55:44;5.47;;;4.00;;
21206;SDS011;10761;48.532;8.026;2023-08-24T00:58:09;8.02;;;4.07;;
21206;SDS011;10761;48.532;8.026;2023-08-24T01:00:35;4.75;;;3.97;;
21206;SDS011;10761;48.532;8.026;2023-08-24T01:03:02;7.38;;;3.88;;
21206;SDS011;10761;48.532;8.026;2023-08-24T01:05:28;4.82;;;4.30;;
21206;SDS011;10761;48.532;8.026;2023-08-24T01:07:54;7.78;;;4.40;;
21206;SDS011;10761;48.532;8.026;2023-08-24T01:10:20;8.18;;;4.30;;
21206;SDS011;10761;48.532;8.026;2023-08-24T01:12:55;11.00;;;4.90;;
21206;SDS011;10761;48.532;8.026;2023-08-24T01:15:32;5.53;;;4.40;;
21206;SDS011;10761;48.532;8.026;2023-08-24T01:18:08;9.35;;;4.30;;
21206;SDS011;10761;48.532;8.026;2023-08-24T01:20:40;5.20;;;4.55;;
21206;SDS011;10761;48.532;8.026;2023-08-24T01:23:09;4.78;;;4.28;;
21206;SDS011;10761;48.532;8.026;2023-08-24T01:25:48;5.57;;;4.70;;
21206;SDS011;10761;48.532;8.026;2023-08-24T01:28:18;4.88;;;4.38;;
21206;SDS011;10761;48.532;8.026;2023-08-24T01:30:48;6.57;;;4.47;;
21206;SDS011;10761;48.532;8.026;2023-08-24T01:33:13;4.70;;;4.03;;
21206;SDS011;10761;48.532;8.026;2023-08-24T01:35:40;5.75;;;4.53;;
21206;SDS011;10761;48.532;8.026;2023-08-24T01:38:06;7.10;;;4.47;;
21206;SDS011;10761;48.532;8.026;2023-08-24T01:43:18;8.02;;;4.38;;
21206;SDS011;10761;48.532;8.026;2023-08-24T01:45:45;6.80;;;4.45;;
21206;SDS011;10761;48.532;8.026;2023-08-24T01:48:12;6.50;;;4.43;;
21206;SDS011;10761;48.532;8.026;2023-08-24T01:50:38;7.40;;;5.10;;
21206;SDS011;10761;48.532;8.026;2023-08-24T01:53:05;5.80;;;4.90;;
21206;SDS011;10761;48.532;8.026;2023-08-24T01:55:31;6.80;;;4.70;;
21206;SDS011;10761;48.532;8.026;2023-08-24T01:57:57;11.52;;;4.95;;
21206;SDS011;10761;48.532;8.026;2023-08-24T02:00:23;8.40;;;5.20;;
21206;SDS011;10761;48.532;8.026;2023-08-24T02:02:49;6.15;;;5.13;;
21206;SDS011;10761;48.532;8.026;2023-08-24T02:05:14;9.45;;;5.50;;
21206;SDS011;10761;48.532;8.026;2023-08-24T02:07:40;6.45;;;5.03;;
21206;SDS011;10761;48.532;8.026;2023-08-24T02:10:06;13.52;;;5.30;;
21206;SDS011;10761;48.532;8.026;2023-08-24T02:12:32;7.25;;;5.25;;
21206;SDS011;10761;48.532;8.026;2023-08-24T02:14:57;8.75;;;5.15;;
21206;SDS011;10761;48.532;8.026;2023-08-24T02:17:23;5.68;;;5.07;;
21206;SDS011;10761;48.532;8.026;2023-08-24T02:19:49;9.57;;;4.95;;
21206;SDS011;10761;48.532;8.026;2023-08-24T02:22:15;6.25;;;5.47;;
21206;SDS011;10761;48.532;8.026;2023-08-24T02:24:40;9.52;;;5.80;;
21206;SDS011;10761;48.532;8.026;2023-08-24T02:27:06;9.40;;;5.68;;
21206;SDS011;10761;48.532;8.026;2023-08-24T02:29:32;6.13;;;5.50;;
21206;SDS011;10761;48.532;8.026;2023-08-24T02:31:57;12.75;;;5.97;;
21206;SDS011;10761;48.532;8.026;2023-08-24T02:34:23;11.07;;;6.32;;
21206;SDS011;10761;48.532;8.026;2023-08-24T02:36:48;8.93;;;6.00;;
21206;SDS011;10761;48.532;8.026;2023-08-24T02:39:14;8.10;;;6.30;;
21206;SDS011;10761;48.532;8.026;2023-08-24T02:41:39;7.25;;;6.38;;
21206;SDS011;10761;48.532;8.026;2023-08-24T02:44:05;9.35;;;6.05;;
21206;SDS011;10761;48.532;8.026;2023-08-24T02:46:31;10.52;;;6.20;;
21206;SDS011;10761;48.532;8.026;2023-08-24T02:48:56;8.93;;;5.88;;
21206;SDS011;10761;48.532;8.026;2023-08-24T02:51:22;7.22;;;6.15;;
21206;SDS011;10761;48.532;8.026;2023-08-24T02:53:49;9.32;;;6.45;;
21206;SDS011;10761;48.532;8.026;2023-08-24T02:56:15;8.35;;;5.97;;
21206;SDS011;10761;48.532;8.026;2023-08-24T02:58:41;9.18;;;5.72;;
21206;SDS011;10761;48.532;8.026;2023-08-24T03:01:07;9.85;;;5.95;;
21206;SDS011;10761;48.532;8.026;2023-08-24T03:03:36;9.70;;;5.97;;
21206;SDS011;10761;48.532;8.026;2023-08-24T03:06:06;10.40;;;5.25;;
21206;SDS011;10761;48.532;8.026;2023-08-24T03:08:33;7.78;;;5.63;;
21206;SDS011;10761;48.532;8.026;2023-08-24T03:11:00;6.63;;;5.38;;
21206;SDS011;10761;48.532;8.026;2023-08-24T03:13:27;11.38;;;5.40;;
21206;SDS011;10761;48.532;8.026;2023-08-24T03:15:53;8.68;;;5.55;;
21206;SDS011;10761;48.532;8.026;2023-08-24T03:18:19;7.95;;;5.88;;
21206;SDS011;10761;48.532;8.026;2023-08-24T03:20:45;7.70;;;6.05;;
21206;SDS011;10761;48.532;8.026;2023-08-24T03:23:11;11.05;;;6.30;;
21206;SDS011;10761;48.532;8.026;2023-08-24T03:25:38;9.15;;;5.82;;
21206;SDS011;10761;48.532;8.026;2023-08-24T03:28:05;11.00;;;6.40;;
21206;SDS011;10761;48.532;8.026;2023-08-24T03:30:33;6.75;;;5.72;;
21206;SDS011;10761;48.532;8.026;2023-08-24T03:33:00;7.93;;;6.50;;
21206;SDS011;10761;48.532;8.026;2023-08-24T03:35:27;9.57;;;6.28;;
21206;SDS011;10761;48.532;8.026;2023-08-24T03:37:53;9.90;;;6.60;;
21206;SDS011;10761;48.532;8.026;2023-08-24T03:40:19;9.80;;;6.53;;
21206;SDS011;10761;48.532;8.026;2023-08-24T03:42:45;6.65;;;6.00;;
21206;SDS011;10761;48.532;8.026;2023-08-24T03:45:10;12.88;;;6.60;;
21206;SDS011;10761;48.532;8.026;2023-08-24T03:47:36;12.45;;;6.57;;
21206;SDS011;10761;48.532;8.026;2023-08-24T03:50:02;7.78;;;5.95;;
21206;SDS011;10761;48.532;8.026;2023-08-24T03:52:27;12.57;;;6.85;;
21206;SDS011;10761;48.532;8.026;2023-08-24T03:54:53;9.55;;;7.18;;
21206;SDS011;10761;48.532;8.026;2023-08-24T03:57:18;9.45;;;6.47;;
21206;SDS011;10761;48.532;8.026;2023-08-24T03:59:44;8.15;;;6.00;;
21206;SDS011;10761;48.532;8.026;2023-08-24T04:02:10;9.73;;;6.63;;
21206;SDS011;10761;48.532;8.026;2023-08-24T04:04:35;6.35;;;5.78;;
21206;SDS011;10761;48.532;8.026;2023-08-24T04:07:01;11.45;;;6.55;;
21206;SDS011;10761;48.532;8.026;2023-08-24T04:09:27;6.97;;;6.28;;
21206;SDS011;10761;48.532;8.026;2023-08-24T04:11:53;8.57;;;6.15;;
21206;SDS011;10761;48.532;8.026;2023-08-24T04:14:19;6.40;;;5.80;;
21206;SDS011;10761;48.532;8.026;2023-08-24T04:16:45;8.38;;;6.53;;
21206;SDS011;10761;48.532;8.026;2023-08-24T04:19:10;14.98;;;7.05;;
21206;SDS011;10761;48.532;8.026;2023-08-24T04:21:36;10.77;;;6.70;;
21206;SDS011;10761;48.532;8.026;2023-08-24T04:24:01;9.32;;;6.40;;
21206;SDS011;10761;48.532;8.026;2023-08-24T04:26:27;9.05;;;6.50;;
21206;SDS011;10761;48.532;8.026;2023-08-24T04:28:53;10.60;;;7.00;;
21206;SDS011;10761;48.532;8.026;2023-08-24T04:31:18;11.75;;;6.95;;
21206;SDS011;10761;48.532;8.026;2023-08-24T04:33:44;11.15;;;6.63;;
21206;SDS011;10761;48.532;8.026;2023-08-24T04:36:09;10.20;;;6.78;;
21206;SDS011;10761;48.532;8.026;2023-08-24T04:38:35;7.47;;;6.40;;
21206;SDS011;10761;48.532;8.026;2023-08-24T04:41:00;8.55;;;7.75;;
21206;SDS011;10761;48.532;8.026;2023-08-24T04:43:32;11.27;;;8.25;;
21206;SDS011;10761;48.532;8.026;2023-08-24T04:45:58;10.65;;;8.75;;
21206;SDS011;10761;48.532;8.026;2023-08-24T04:48:24;11.35;;;8.68;;
21206;SDS011;10761;48.532;8.026;2023-08-24T04:50:51;11.25;;;8.23;;
21206;SDS011;10761;48.532;8.026;2023-08-24T04:53:18;7.82;;;7.05;;
21206;SDS011;10761;48.532;8.026;2023-08-24T04:55:45;12.65;;;7.88;;
21206;SDS011;10761;48.532;8.026;2023-08-24T04:58:11;7.97;;;7.07;;
21206;SDS011;10761;48.532;8.026;2023-08-24T05:00:38;8.00;;;7.20;;
21206;SDS011;10761;48.532;8.026;2023-08-24T05:03:04;10.38;;;7.00;;
21206;SDS011;10761;48.532;8.026;2023-08-24T05:05:32;12.40;;;7.05;;
21206;SDS011;10761;48.532;8.026;2023-08-24T05:07:59;8.18;;;6.20;;
21206;SDS011;10761;48.532;8.026;2023-08-24T05:10:26;9.10;;;7.40;;
21206;SDS011;10761;48.532;8.026;2023-08-24T05:12:55;9.20;;;6.63;;
21206;SDS011;10761;48.532;8.026;2023-08-24T05:15:21;12.88;;;6.78;;
21206;SDS011;10761;48.532;8.026;2023-08-24T05:17:46;8.88;;;6.95;;
21206;SDS011;10761;48.532;8.026;2023-08-24T05:20:12;7.63;;;6.30;;
21206;SDS011;10761;48.532;8.026;2023-08-24T05:22:38;8.68;;;6.43;;
21206;SDS011;10761;48.532;8.026;2023-08-24T05:25:04;6.93;;;6.22;;
21206;SDS011;10761;48.532;8.026;2023-08-24T05:27:31;10.55;;;6.78;;
21206;SDS011;10761;48.532;8.026;2023-08-24T05:29:56;9.00;;;6.32;;
21206;SDS011;10761;48.532;8.026;2023-08-24T05:32:22;9.93;;;6.57;;
21206;SDS011;10761;48.532;8.026;2023-08-24T05:34:48;8.18;;;6.57;;
21206;SDS011;10761;48.532;8.026;2023-08-24T05:37:13;10.95;;;6.13;;
21206;SDS011;10761;48.532;8.026;2023-08-24T05:39:39;9.85;;;6.68;;
21206;SDS011;10761;48.532;8.026;2023-08-24T05:42:05;8.45;;;6.57;;
21206;SDS011;10761;48.532;8.026;2023-08-24T05:44:30;10.52;;;6.85;;
21206;SDS011;10761;48.532;8.026;2023-08-24T05:46:56;10.13;;;8.85;;
21206;SDS011;10761;48.532;8.026;2023-08-24T05:49:22;12.27;;;8.93;;
21206;SDS011;10761;48.532;8.026;2023-08-24T05:51:51;16.67;;;9.85;;
21206;SDS011;10761;48.532;8.026;2023-08-24T05:54:17;13.23;;;10.48;;
21206;SDS011;10761;48.532;8.026;2023-08-24T05:56:43;13.48;;;10.23;;
21206;SDS011;10761;48.532;8.026;2023-08-24T05:59:10;13.00;;;11.27;;
21206;SDS011;10761;48.532;8.026;2023-08-24T06:01:35;17.50;;;10.48;;
21206;SDS011;10761;48.532;8.026;2023-08-24T06:04:05;11.35;;;10.15;;
21206;SDS011;10761;48.532;8.026;2023-08-24T06:06:30;17.75;;;10.32;;
21206;SDS011;10761;48.532;8.026;2023-08-24T06:08:56;15.68;;;10.70;;
21206;SDS011;10761;48.532;8.026;2023-08-24T06:11:22;12.48;;;9.63;;
21206;SDS011;10761;48.532;8.026;2023-08-24T06:13:48;18.50;;;9.82;;
21206;SDS011;10761;48.532;8.026;2023-08-24T06:16:13;11.00;;;9.88;;
21206;SDS011;10761;48.532;8.026;2023-08-24T06:18:39;12.48;;;10.93;;
21206;SDS011;10761;48.532;8.026;2023-08-24T06:21:04;14.02;;;10.38;;
21206;SDS011;10761;48.532;8.026;2023-08-24T06:23:30;10.90;;;9.80;;
21206;SDS011;10761;48.532;8.026;2023-08-24T06:25:56;15.48;;;10.73;;
21206;SDS011;10761;48.532;8.026;2023-08-24T06:28:21;13.07;;;10.45;;
21206;SDS011;10761;48.532;8.026;2023-08-24T06:30:47;11.60;;;10.32;;
21206;SDS011;10761;48.532;8.026;2023-08-24T06:33:12;12.27;;;10.07;;
21206;SDS011;10761;48.532;8.026;2023-08-24T06:35:38;12.48;;;8.63;;
21206;SDS011;10761;48.532;8.026;2023-08-24T06:38:04;9.45;;;8.45;;
21206;SDS011;10761;48.532;8.026;2023-08-24T06:40:30;12.88;;;8.57;;
21206;SDS011;10761;48.532;8.026;2023-08-24T06:42:56;14.40;;;8.27;;
21206;SDS011;10761;48.532;8.026;2023-08-24T06:45:22;8.50;;;7.20;;
21206;SDS011;10761;48.532;8.026;2023-08-24T06:47:48;10.57;;;7.30;;
21206;SDS011;10761;48.532;8.026;2023-08-24T06:50:13;9.25;;;6.90;;
21206;SDS011;10761;48.532;8.026;2023-08-24T06:52:40;9.70;;;6.20;;
21206;SDS011;10761;48.532;8.026;2023-08-24T06:55:06;8.77;;;6.53;;
21206;SDS011;10761;48.532;8.026;2023-08-24T06:57:33;8.15;;;6.47;;
21206;SDS011;10761;48.532;8.026;2023-08-24T06:59:59;7.13;;;6.43;;
21206;SDS011;10761;48.532;8.026;2023-08-24T07:02:25;10.90;;;6.90;;
21206;SDS011;10761;48.532;8.026;2023-08-24T07:04:51;13.13;;;5.80;;
21206;SDS011;10761;48.532;8.026;2023-08-24T07:07:16;13.27;;;6.38;;
21206;SDS011;10761;48.532;8.026;2023-08-24T07:09:42;8.73;;;5.43;;
21206;SDS011;10761;48.532;8.026;2023-08-24T07:12:08;8.50;;;4.95;;
21206;SDS011;10761;48.532;8.026;2023-08-24T07:14:37;10.05;;;5.70;;
21206;SDS011;10761;48.532;8.026;2023-08-24T07:17:03;10.05;;;4.90;;
21206;SDS011;10761;48.532;8.026;2023-08-24T07:19:31;9.70;;;5.03;;
21206;SDS011;10761;48.532;8.026;2023-08-24T07:21:56;10.90;;;4.85;;
21206;SDS011;10761;48.532;8.026;2023-08-24T07:24:22;10.77;;;5.10;;
21206;SDS011;10761;48.532;8.026;2023-08-24T07:26:51;5.55;;;4.55;;
21206;SDS011;10761;48.532;8.026;2023-08-24T07:29:17;10.90;;;4.88;;
21206;SDS011;10761;48.532;8.026;2023-08-24T07:31:43;11.35;;;4.43;;
21206;SDS011;10761;48.532;8.026;2023-08-24T07:34:08;8.23;;;4.28;;
21206;SDS011;10761;48.532;8.026;2023-08-24T07:36:34;6.97;;;4.53;;
21206;SDS011;10761;48.532;8.026;2023-08-24T07:38:59;10.20;;;4.55;;
21206;SDS011;10761;48.532;8.026;2023-08-24T07:41:25;9.70;;;4.30;;
21206;SDS011;10761;48.532;8.026;2023-08-24T07:43:51;8.13;;;4.60;;
21206;SDS011;10761;48.532;8.026;2023-08-24T07:46:16;10.45;;;4.50;;
21206;SDS011;10761;48.532;8.026;2023-08-24T07:48:42;7.13;;;5.13;;
21206;SDS011;10761;48.532;8.026;2023-08-24T07:51:08;9.85;;;5.15;;
21206;SDS011;10761;48.532;8.026;2023-08-24T07:53:33;11.20;;;5.10;;
21206;SDS011;10761;48.532;8.026;2023-08-24T07:55:59;8.88;;;5.28;;
21206;SDS011;10761;48.532;8.026;2023-08-24T07:58:26;7.20;;;4.60;;
21206;SDS011;10761;48.532;8.026;2023-08-24T08:00:52;9.57;;;5.20;;
21206;SDS011;10761;48.532;8.026;2023-08-24T08:03:18;13.02;;;5.05;;
21206;SDS011;10761;48.532;8.026;2023-08-24T08:05:44;9.18;;;5.55;;
21206;SDS011;10761;48.532;8.026;2023-08-24T08:08:11;8.35;;;4.93;;
21206;SDS011;10761;48.532;8.026;2023-08-24T08:10:36;6.38;;;4.70;;
21206;SDS011;10761;48.532;8.026;2023-08-24T08:13:02;14.38;;;5.85;;
21206;SDS011;10761;48.532;8.026;2023-08-24T08:15:28;10.02;;;5.40;;
21206;SDS011;10761;48.532;8.026;2023-08-24T08:17:53;15.27;;;6.00;;
21206;SDS011;10761;48.532;8.026;2023-08-24T08:20:19;12.43;;;5.45;;
21206;SDS011;10761;48.532;8.026;2023-08-24T08:22:44;9.02;;;5.53;;
21206;SDS011;10761;48.532;8.026;2023-08-24T08:25:10;8.18;;;5.57;;
21206;SDS011;10761;48.532;8.026;2023-08-24T08:27:37;8.52;;;5.05;;
21206;SDS011;10761;48.532;8.026;2023-08-24T08:30:04;15.15;;;4.88;;
21206;SDS011;10761;48.532;8.026;2023-08-24T08:32:30;6.40;;;4.40;;
21206;SDS011;10761;48.532;8.026;2023-08-24T08:34:56;8.63;;;4.90;;
21206;SDS011;10761;48.532;8.026;2023-08-24T08:37:26;11.90;;;4.93;;
21206;SDS011;10761;48.532;8.026;2023-08-24T08:39:52;8.55;;;4.50;;
21206;SDS011;10761;48.532;8.026;2023-08-24T08:42:17;9.95;;;5.18;;
21206;SDS011;10761;48.532;8.026;2023-08-24T08:44:44;10.73;;;4.78;;
21206;SDS011;10761;48.532;8.026;2023-08-24T08:47:11;8.50;;;4.70;;
21206;SDS011;10761;48.532;8.026;2023-08-24T08:49:38;11.23;;;4.80;;
21206;SDS011;10761;48.532;8.026;2023-08-24T08:52:04;6.88;;;5.25;;
21206;SDS011;10761;48.532;8.026;2023-08-24T08:54:31;12.05;;;4.85;;
21206;SDS011;10761;48.532;8.026;2023-08-24T08:56:58;7.60;;;4.40;;
21206;SDS011;10761;48.532;8.026;2023-08-24T08:59:25;11.02;;;5.15;;
21206;SDS011;10761;48.532;8.026;2023-08-24T09:01:54;7.20;;;4.80;;
21206;SDS011;10761;48.532;8.026;2023-08-24T09:04:21;12.20;;;4.75;;
21206;SDS011;10761;48.532;8.026;2023-08-24T09:06:47;9.70;;;5.65;;
21206;SDS011;10761;48.532;8.026;2023-08-24T09:09:13;10.40;;;4.75;;
21206;SDS011;10761;48.532;8.026;2023-08-24T09:11:40;7.43;;;4.80;;
21206;SDS011;10761;48.532;8.026;2023-08-24T09:14:07;10.75;;;4.63;;
21206;SDS011;10761;48.532;8.026;2023-08-24T09:16:32;9.00;;;5.15;;
21206;SDS011;10761;48.532;8.026;2023-08-24T09:18:58;14.85;;;4.90;;
21206;SDS011;10761;48.532;8.026;2023-08-24T09:21:24;11.43;;;4.80;;
21206;SDS011;10761;48.532;8.026;2023-08-24T09:23:54;13.18;;;4.72;;
21206;SDS011;10761;48.532;8.026;2023-08-24T09:26:29;9.23;;;4.53;;
21206;SDS011;10761;48.532;8.026;2023-08-24T09:28:56;11.20;;;4.53;;
21206;SDS011;10761;48.532;8.026;2023-08-24T09:31:22;13.88;;;5.22;;
21206;SDS011;10761;48.532;8.026;2023-08-24T09:33:49;12.23;;;4.40;;
21206;SDS011;10761;48.532;8.026;2023-08-24T09:36:14;9.35;;;4.55;;
21206;SDS011;10761;48.532;8.026;2023-08-24T09:38:47;11.05;;;4.63;;
21206;SDS011;10761;48.532;8.026;2023-08-24T09:41:13;10.30;;;4.82;;
21206;SDS011;10761;48.532;8.026;2023-08-24T09:43:39;8.98;;;4.70;;
21206;SDS011;10761;48.532;8.026;2023-08-24T09:46:05;11.02;;;4.55;;
21206;SDS011;10761;48.532;8.026;2023-08-24T09:48:33;7.88;;;4.25;;
21206;SDS011;10761;48.532;8.026;2023-08-24T09:50:58;13.50;;;4.85;;
21206;SDS011;10761;48.532;8.026;2023-08-24T09:53:29;9.70;;;4.50;;
21206;SDS011;10761;48.532;8.026;2023-08-24T09:58:27;8.90;;;4.43;;
21206;SDS011;10761;48.532;8.026;2023-08-24T10:00:54;12.23;;;4.60;;
21206;SDS011;10761;48.532;8.026;2023-08-24T10:03:21;7.95;;;4.82;;
21206;SDS011;10761;48.532;8.026;2023-08-24T10:05:53;11.75;;;4.45;;
21206;SDS011;10761;48.532;8.026;2023-08-24T10:08:29;13.95;;;5.18;;
21206;SDS011;10761;48.532;8.026;2023-08-24T10:11:00;10.57;;;4.63;;
21206;SDS011;10761;48.532;8.026;2023-08-24T10:13:29;9.65;;;4.55;;
21206;SDS011;10761;48.532;8.026;2023-08-24T10:15:57;7.27;;;4.50;;
21206;SDS011;10761;48.532;8.026;2023-08-24T10:18:24;12.38;;;5.20;;
21206;SDS011;10761;48.532;8.026;2023-08-24T10:20:51;6.97;;;4.75;;
21206;SDS011;10761;48.532;8.026;2023-08-24T10:23:17;8.20;;;4.68;;
21206;SDS011;10761;48.532;8.026;2023-08-24T10:25:45;8.20;;;4.63;;
21206;SDS011;10761;48.532;8.026;2023-08-24T10:28:11;9.93;;;4.95;;
21206;SDS011;10761;48.532;8.026;2023-08-24T10:30:38;10.25;;;4.32;;
21206;SDS011;10761;48.532;8.026;2023-08-24T10:33:05;9.48;;;4.30;;
21206;SDS011;10761;48.532;8.026;2023-08-24T10:35:31;7.93;;;4.70;;
21206;SDS011;10761;48.532;8.026;2023-08-24T10:37:58;6.53;;;4.30;;
21206;SDS011;10761;48.532;8.026;2023-08-24T10:40:31;8.05;;;4.00;;
21206;SDS011;10761;48.532;8.026;2023-08-24T10:42:58;8.90;;;3.97;;
21206;SDS011;10761;48.532;8.026;2023-08-24T10:45:53;8.53;;;4.50;;
21206;SDS011;10761;48.532;8.026;2023-08-24T10:48:24;12.88;;;4.70;;
21206;SDS011;10761;48.532;8.026;2023-08-24T10:53:38;10.13;;;5.00;;
21206;SDS011;10761;48.532;8.026;2023-08-24T10:56:12;9.45;;;4.97;;
21206;SDS011;10761;48.532;8.026;2023-08-24T10:58:39;8.88;;;4.75;;
21206;SDS011;10761;48.532;8.026;2023-08-24T11:01:05;8.85;;;4.82;;
21206;SDS011;10761;48.532;8.026;2023-08-24T11:03:31;12.70;;;4.53;;
21206;SDS011;10761;48.532;8.026;2023-08-24T11:06:00;13.18;;;4.80;;
21206;SDS011;10761;48.532;8.026;2023-08-24T11:08:44;6.88;;;4.65;;
21206;SDS011;10761;48.532;8.026;2023-08-24T11:11:20;8.80;;;4.93;;
21206;SDS011;10761;48.532;8.026;2023-08-24T11:17:00;9.43;;;4.63;;
21206;SDS011;10761;48.532;8.026;2023-08-24T11:21:52;9.02;;;4.70;;
21206;SDS011;10761;48.532;8.026;2023-08-24T11:24:18;7.85;;;4.45;;
21206;SDS011;10761;48.532;8.026;2023-08-24T11:26:45;10.75;;;4.90;;
21206;SDS011;10761;48.532;8.026;2023-08-24T11:29:12;7.20;;;4.18;;
21206;SDS011;10761;48.532;8.026;2023-08-24T11:31:38;5.35;;;4.30;;
21206;SDS011;10761;48.532;8.026;2023-08-24T11:34:04;6.50;;;4.60;;
21206;SDS011;10761;48.532;8.026;2023-08-24T11:36:32;8.98;;;4.50;;
21206;SDS011;10761;48.532;8.026;2023-08-24T11:39:07;8.75;;;4.50;;
21206;SDS011;10761;48.532;8.026;2023-08-24T11:42:07;4.82;;;4.35;;
21206;SDS011;10761;48.532;8.026;2023-08-24T11:44:47;12.27;;;4.45;;
21206;SDS011;10761;48.532;8.026;2023-08-24T11:47:14;11.55;;;4.50;;
21206;SDS011;10761;48.532;8.026;2023-08-24T11:49:40;8.95;;;4.47;;
21206;SDS011;10761;48.532;8.026;2023-08-24T11:52:06;14.82;;;4.45;;
21206;SDS011;10761;48.532;8.026;2023-08-24T11:54:32;6.80;;;3.90;;
21206;SDS011;10761;48.532;8.026;2023-08-24T11:56:58;5.60;;;4.30;;
21206;SDS011;10761;48.532;8.026;2023-08-24T11:59:23;7.97;;;4.30;;
21206;SDS011;10761;48.532;8.026;2023-08-24T12:01:50;9.82;;;4.18;;
21206;SDS011;10761;48.532;8.026;2023-08-24T12:04:17;11.23;;;4.95;;
21206;SDS011;10761;48.532;8.026;2023-08-24T12:06:43;8.07;;;4.20;;
21206;SDS011;10761;48.532;8.026;2023-08-24T12:09:09;5.93;;;4.10;;
21206;SDS011;10761;48.532;8.026;2023-08-24T12:11:35;7.70;;;3.95;;
21206;SDS011;10761;48.532;8.026;2023-08-24T12:14:02;8.23;;;4.50;;
21206;SDS011;10761;48.532;8.026;2023-08-24T12:16:30;9.82;;;4.22;;
21206;SDS011;10761;48.532;8.026;2023-08-24T12:18:57;8.27;;;4.22;;
21206;SDS011;10761;48.532;8.026;2023-08-24T12:21:27;8.60;;;4.10;;
21206;SDS011;10761;48.532;8.026;2023-08-24T12:23:58;7.82;;;4.18;;
21206;SDS011;10761;48.532;8.026;2023-08-24T12:26:31;15.82;;;5.00;;
21206;SDS011;10761;48.532;8.026;2023-08-24T12:29:01;9.32;;;4.30;;
21206;SDS011;10761;48.532;8.026;2023-08-24T12:31:28;11.43;;;5.15;;
21206;SDS011;10761;48.532;8.026;2023-08-24T12:34:04;12.75;;;4.60;;
21206;SDS011;10761;48.532;8.026;2023-08-24T12:36:32;10.10;;;4.18;;
21206;SDS011;10761;48.532;8.026;2023-08-24T12:38:58;9.13;;;4.18;;
21206;SDS011;10761;48.532;8.026;2023-08-24T12:41:24;6.05;;;4.35;;
21206;SDS011;10761;48.532;8.026;2023-08-24T12:43:50;7.93;;;4.20;;
21206;SDS011;10761;48.532;8.026;2023-08-24T12:46:17;4.80;;;3.80;;
21206;SDS011;10761;48.532;8.026;2023-08-24T12:48:42;7.68;;;4.15;;
21206;SDS011;10761;48.532;8.026;2023-08-24T12:51:08;7.13;;;4.35;;
21206;SDS011;10761;48.532;8.026;2023-08-24T12:53:33;5.20;;;4.35;;
21206;SDS011;10761;48.532;8.026;2023-08-24T12:55:59;9.48;;;4.05;;
21206;SDS011;10761;48.532;8.026;2023-08-24T12:58:24;8.82;;;4.35;;
21206;SDS011;10761;48.532;8.026;2023-08-24T13:00:50;12.95;;;4.28;;
21206;SDS011;10761;48.532;8.026;2023-08-24T13:03:16;8.27;;;4.00;;
21206;SDS011;10761;48.532;8.026;2023-08-24T13:05:41;8.30;;;4.50;;
21206;SDS011;10761;48.532;8.026;2023-08-24T13:08:07;7.13;;;4.60;;
21206;SDS011;10761;48.532;8.026;2023-08-24T13:10:33;8.60;;;4.47;;
21206;SDS011;10761;48.532;8.026;2023-08-24T13:12:58;8.98;;;4.35;;
21206;SDS011;10761;48.532;8.026;2023-08-24T13:15:24;7.80;;;4.63;;
21206;SDS011;10761;48.532;8.026;2023-08-24T13:17:49;10.30;;;4.45;;
21206;SDS011;10761;48.532;8.026;2023-08-24T13:20:15;13.45;;;4.32;;
21206;SDS011;10761;48.532;8.026;2023-08-24T13:22:41;8.82;;;4.18;;
21206;SDS011;10761;48.532;8.026;2023-08-24T13:25:07;9.25;;;4.50;;
21206;SDS011;10761;48.532;8.026;2023-08-24T13:27:32;10.18;;;4.40;;
21206;SDS011;10761;48.532;8.026;2023-08-24T13:30:02;9.15;;;4.70;;
21206;SDS011;10761;48.532;8.026;2023-08-24T13:32:28;8.48;;;4.80;;
21206;SDS011;10761;48.532;8.026;2023-08-24T13:34:53;8.65;;;4.32;;
21206;SDS011;10761;48.532;8.026;2023-08-24T13:37:21;10.55;;;4.57;;
21206;SDS011;10761;48.532;8.026;2023-08-24T13:39:47;10.02;;;4.15;;
21206;SDS011;10761;48.532;8.026;2023-08-24T13:42:12;8.18;;;4.68;;
21206;SDS011;10761;48.532;8.026;2023-08-24T13:44:38;11.05;;;4.57;;
21206;SDS011;10761;48.532;8.026;2023-08-24T13:47:04;9.50;;;4.47;;
21206;SDS011;10761;48.532;8.026;2023-08-24T13:49:29;13.25;;;4.78;;
21206;SDS011;10761;48.532;8.026;2023-08-24T13:51:55;7.85;;;5.18;;
21206;SDS011;10761;48.532;8.026;2023-08-24T13:54:21;10.20;;;4.93;;
21206;SDS011;10761;48.532;8.026;2023-08-24T13:56:47;11.35;;;4.75;;
21206;SDS011;10761;48.532;8.026;2023-08-24T13:59:14;8.60;;;5.45;;
21206;SDS011;10761;48.532;8.026;2023-08-24T14:01:40;10.45;;;5.28;;
21206;SDS011;10761;48.532;8.026;2023-08-24T14:04:06;12.57;;;5.50;;
21206;SDS011;10761;48.532;8.026;2023-08-24T14:06:32;15.85;;;5.60;;
21206;SDS011;10761;48.532;8.026;2023-08-24T14:09:04;14.52;;;5.50;;
21206;SDS011;10761;48.532;8.026;2023-08-24T14:11:32;14.02;;;5.50;;
21206;SDS011;10761;48.532;8.026;2023-08-24T14:13:57;12.18;;;5.60;;
21206;SDS011;10761;48.532;8.026;2023-08-24T14:16:24;12.10;;;5.57;;
21206;SDS011;10761;48.532;8.026;2023-08-24T14:18:51;11.25;;;4.90;;
21206;SDS011;10761;48.532;8.026;2023-08-24T14:21:17;14.73;;;5.35;;
21206;SDS011;10761;48.532;8.026;2023-08-24T14:23:43;19.70;;;5.07;;
21206;SDS011;10761;48.532;8.026;2023-08-24T14:26:09;13.35;;;5.00;;
21206;SDS011;10761;48.532;8.026;2023-08-24T14:31:19;8.25;;;5.00;;
21206;SDS011;10761;48.532;8.026;2023-08-24T14:33:45;13.15;;;5.00;;
21206;SDS011;10761;48.532;8.026;2023-08-24T14:36:10;11.45;;;4.68;;
21206;SDS011;10761;48.532;8.026;2023-08-24T14:38:40;12.43;;;5.10;;
21206;SDS011;10761;48.532;8.026;2023-08-24T14:41:07;13.63;;;4.65;;
21206;SDS011;10761;48.532;8.026;2023-08-24T14:43:36;10.00;;;4.72;;
21206;SDS011;10761;48.532;8.026;2023-08-24T14:46:03;11.55;;;5.00;;
21206;SDS011;10761;48.532;8.026;2023-08-24T14:48:29;5.13;;;4.13;;
21206;SDS011;10761;48.532;8.026;2023-08-24T14:50:55;8.18;;;4.30;;
21206;SDS011;10761;48.532;8.026;2023-08-24T14:53:22;8.60;;;4.43;;
21206;SDS011;10761;48.532;8.026;2023-08-24T14:55:48;9.98;;;4.40;;
21206;SDS011;10761;48.532;8.026;2023-08-24T14:58:13;10.90;;;4.68;;